sensor_id;sensor_type;location;lat;lon;timestamp;temperature;humidity
19496;DHT22;9888;48.606;9.630;2023-10-31T00:01:22;9.40;99.90
19496;DHT22;9888;48.606;9.630;2023-10-31T00:03:51;9.40;99.90
19496;DHT22;9888;48.606;9.630;2023-10-31T00:06:19;9.40;99.90
19496;DHT22;9888;48.606;9.630;2023-10-31T00:08:46;9.30;99.90
19496;DHT22;9888;48.606;9.630;2023-10-31T00:11:30;9.40;99.90
19496;DHT22;9888;48.606;9.630;2023-10-31T00:21:04;9.40;99.90
19496;DHT22;9888;48.606;9.630;2023-10-31T00:23:34;9.40;99.90
19496;DHT22;9888;48.606;9.630;2023-10-31T00:26:15;9.40;99.90
19496;DHT22;9888;48.606;9.630;2023-10-31T00:28:45;9.40;99.90
19496;DHT22;9888;48.606;9.630;2023-10-31T00:31:39;9.40;99.90
19496;DHT22;9888;48.606;9.630;2023-10-31T00:34:07;9.40;99.90
19496;DHT22;9888;48.606;9.630;2023-10-31T00:39:57;9.50;99.90
19496;DHT22;9888;48.606;9.630;2023-10-31T00:46:08;9.50;99.90
19496;DHT22;9888;48.606;9.630;2023-10-31T00:48:37;9.50;99.90
19496;DHT22;9888;48.606;9.630;2023-10-31T00:51:04;9.60;99.90
19496;DHT22;9888;48.606;9.630;2023-10-31T00:53:32;9.60;99.90
19496;DHT22;9888;48.606;9.630;2023-10-31T00:55:59;9.60;99.90
19496;DHT22;9888;48.606;9.630;2023-10-31T01:01:39;9.60;99.90
19496;DHT22;9888;48.606;9.630;2023-10-31T01:04:07;9.60;99.90
19496;DHT22;9888;48.606;9.630;2023-10-31T01:06:43;9.60;99.90
19496;DHT22;9888;48.606;9.630;2023-10-31T01:09:11;9.50;99.90
19496;DHT22;9888;48.606;9.630;2023-10-31T01:11:38;9.40;99.90
19496;DHT22;9888;48.606;9.630;2023-10-31T01:14:11;9.20;99.90
19496;DHT22;9888;48.606;9.630;2023-10-31T01:16:49;9.10;99.90
19496;DHT22;9888;48.606;9.630;2023-10-31T01:19:17;9.00;99.90
19496;DHT22;9888;48.606;9.630;2023-10-31T01:21:47;8.90;99.90
19496;DHT22;9888;48.606;9.630;2023-10-31T01:24:16;8.80;99.90
19496;DHT22;9888;48.606;9.630;2023-10-31T01:26:43;8.80;99.90
19496;DHT22;9888;48.606;9.630;2023-10-31T01:29:17;8.70;99.90
19496;DHT22;9888;48.606;9.630;2023-10-31T01:31:55;8.70;99.90
19496;DHT22;9888;48.606;9.630;2023-10-31T01:34:23;8.70;99.90
19496;DHT22;9888;48.606;9.630;2023-10-31T01:36:51;8.70;99.90
19496;DHT22;9888;48.606;9.630;2023-10-31T01:39:19;8.70;99.90
19496;DHT22;9888;48.606;9.630;2023-10-31T01:41:46;8.70;99.90
19496;DHT22;9888;48.606;9.630;2023-10-31T01:44:13;8.60;99.90
19496;DHT22;9888;48.606;9.630;2023-10-31T01:46:45;8.60;99.90
19496;DHT22;9888;48.606;9.630;2023-10-31T01:49:14;8.60;99.90
19496;DHT22;9888;48.606;9.630;2023-10-31T01:51:42;8.60;99.90
19496;DHT22;9888;48.606;9.630;2023-10-31T01:54:11;8.60;99.90
19496;DHT22;9888;48.606;9.630;2023-10-31T01:56:49;8.60;99.90
19496;DHT22;9888;48.606;9.630;2023-10-31T01:59:21;8.60;99.90
19496;DHT22;9888;48.606;9.630;2023-10-31T02:02:04;8.60;99.90
19496;DHT22;9888;48.606;9.630;2023-10-31T02:04:32;8.50;99.90
19496;DHT22;9888;48.606;9.630;2023-10-31T02:07:00;8.50;99.90
19496;DHT22;9888;48.606;9.630;2023-10-31T02:09:27;8.60;99.90
19496;DHT22;9888;48.606;9.630;2023-10-31T02:11:56;8.60;99.90
19496;DHT22;9888;48.606;9.630;2023-10-31T02:14:24;8.60;99.90
19496;DHT22;9888;48.606;9.630;2023-10-31T02:17:01;8.60;99.90
19496;DHT22;9888;48.606;9.630;2023-10-31T02:19:28;8.60;99.90
19496;DHT22;9888;48.606;9.630;2023-10-31T02:22:22;8.50;99.90
19496;DHT22;9888;48.606;9.630;2023-10-31T02:24:49;8.60;99.90
19496;DHT22;9888;48.606;9.630;2023-10-31T02:27:28;8.50;99.90
19496;DHT22;9888;48.606;9.630;2023-10-31T02:29:57;8.50;99.90
19496;DHT22;9888;48.606;9.630;2023-10-31T02:32:25;8.50;99.90
19496;DHT22;9888;48.606;9.630;2023-10-31T02:34:52;8.50;99.90
19496;DHT22;9888;48.606;9.630;2023-10-31T02:37:19;8.50;99.90
19496;DHT22;9888;48.606;9.630;2023-10-31T02:39:47;8.50;99.90
19496;DHT22;9888;48.606;9.630;2023-10-31T02:42:16;8.40;99.90
19496;DHT22;9888;48.606;9.630;2023-10-31T02:44:44;8.40;99.90
19496;DHT22;9888;48.606;9.630;2023-10-31T02:47:14;8.40;99.90
19496;DHT22;9888;48.606;9.630;2023-10-31T02:49:41;8.40;99.90
19496;DHT22;9888;48.606;9.630;2023-10-31T02:52:28;8.40;99.90
19496;DHT22;9888;48.606;9.630;2023-10-31T02:54:55;8.40;99.90
19496;DHT22;9888;48.606;9.630;2023-10-31T02:57:23;8.40;99.90
19496;DHT22;9888;48.606;9.630;2023-10-31T02:59:50;8.40;99.90
19496;DHT22;9888;48.606;9.630;2023-10-31T22:13:38;6.80;99.90
19496;DHT22;9888;48.606;9.630;2023-10-31T22:16:07;6.60;99.90
19496;DHT22;9888;48.606;9.630;2023-10-31T22:18:35;6.50;99.90
19496;DHT22;9888;48.606;9.630;2023-10-31T22:21:02;6.40;99.90
19496;DHT22;9888;48.606;9.630;2023-10-31T22:23:30;6.30;99.90
19496;DHT22;9888;48.606;9.630;2023-10-31T22:25:57;6.30;99.90
19496;DHT22;9888;48.606;9.630;2023-10-31T22:28:24;6.20;99.90
19496;DHT22;9888;48.606;9.630;2023-10-31T22:30:51;6.20;99.90
19496;DHT22;9888;48.606;9.630;2023-10-31T22:33:18;6.20;99.90
19496;DHT22;9888;48.606;9.630;2023-10-31T22:35:45;6.20;99.90
19496;DHT22;9888;48.606;9.630;2023-10-31T22:38:13;6.10;99.90
19496;DHT22;9888;48.606;9.630;2023-10-31T22:40:40;6.10;99.90
19496;DHT22;9888;48.606;9.630;2023-10-31T22:43:07;6.00;99.90
19496;DHT22;9888;48.606;9.630;2023-10-31T22:45:34;5.90;99.90
19496;DHT22;9888;48.606;9.630;2023-10-31T22:48:02;5.90;99.90
19496;DHT22;9888;48.606;9.630;2023-10-31T22:50:30;5.80;99.90
19496;DHT22;9888;48.606;9.630;2023-10-31T22:53:15;5.70;99.90
19496;DHT22;9888;48.606;9.630;2023-10-31T22:55:42;5.70;99.90
19496;DHT22;9888;48.606;9.630;2023-10-31T22:58:10;5.70;99.90
19496;DHT22;9888;48.606;9.630;2023-10-31T23:00:38;5.80;99.90
19496;DHT22;9888;48.606;9.630;2023-10-31T23:03:06;5.80;99.90
19496;DHT22;9888;48.606;9.630;2023-10-31T23:05:33;5.80;99.90
19496;DHT22;9888;48.606;9.630;2023-10-31T23:11:30;5.80;99.90
19496;DHT22;9888;48.606;9.630;2023-10-31T23:13:57;5.90;99.90
19496;DHT22;9888;48.606;9.630;2023-10-31T23:16:24;6.00;99.90
19496;DHT22;9888;48.606;9.630;2023-10-31T23:18:53;6.10;99.90
19496;DHT22;9888;48.606;9.630;2023-10-31T23:21:20;6.20;99.90
19496;DHT22;9888;48.606;9.630;2023-10-31T23:27:18;6.50;99.90
19496;DHT22;9888;48.606;9.630;2023-10-31T23:29:45;6.70;99.90
19496;DHT22;9888;48.606;9.630;2023-10-31T23:32:12;6.80;99.90
19496;DHT22;9888;48.606;9.630;2023-10-31T23:34:40;6.90;99.90
19496;DHT22;9888;48.606;9.630;2023-10-31T23:37:07;7.00;99.90
19496;DHT22;9888;48.606;9.630;2023-10-31T23:39:34;7.10;99.90
19496;DHT22;9888;48.606;9.630;2023-10-31T23:42:02;7.20;99.90
19496;DHT22;9888;48.606;9.630;2023-10-31T23:44:30;7.30;99.90
19496;DHT22;9888;48.606;9.630;2023-10-31T23:46:58;7.40;99.90
19496;DHT22;9888;48.606;9.630;2023-10-31T23:49:30;7.40;99.90
19496;DHT22;9888;48.606;9.630;2023-10-31T23:51:58;7.50;99.90
19496;DHT22;9888;48.606;9.630;2023-10-31T23:54:25;7.60;99.90
19496;DHT22;9888;48.606;9.630;2023-10-31T23:56:54;7.60;99.90
19496;DHT22;9888;48.606;9.630;2023-10-31T23:59:21;7.70;99.90
